sensor_id;sensor_type;location;lat;lon;timestamp;P1;durP1;ratioP1;P2;durP2;ratioP2
32748;SDS011;19119;52.474;13.710;2023-04-25T00:00:15;4.68;;;2.15;;
32748;SDS011;19119;52.474;13.710;2023-04-25T00:02:42;5.05;;;2.47;;
32748;SDS011;19119;52.474;13.710;2023-04-25T00:05:08;4.57;;;2.13;;
32748;SDS011;19119;52.474;13.710;2023-04-25T00:07:34;3.72;;;2.20;;
32748;SDS011;19119;52.474;13.710;2023-04-25T00:09:59;3.88;;;2.15;;
32748;SDS011;19119;52.474;13.710;2023-04-25T00:12:26;3.80;;;2.13;;
32748;SDS011;19119;52.474;13.710;2023-04-25T00:14:53;5.38;;;2.28;;
32748;SDS011;19119;52.474;13.710;2023-04-25T00:17:21;3.67;;;2.55;;
32748;SDS011;19119;52.474;13.710;2023-04-25T00:19:50;3.13;;;1.60;;
32748;SDS011;19119;52.474;13.710;2023-04-25T00:22:16;3.83;;;2.00;;
32748;SDS011;19119;52.474;13.710;2023-04-25T00:24:43;5.00;;;2.20;;
32748;SDS011;19119;52.474;13.710;2023-04-25T00:27:10;4.65;;;2.13;;
32748;SDS011;19119;52.474;13.710;2023-04-25T00:29:36;5.47;;;2.38;;
32748;SDS011;19119;52.474;13.710;2023-04-25T00:32:01;4.97;;;2.22;;
32748;SDS011;19119;52.474;13.710;2023-04-25T00:34:27;4.55;;;2.00;;
32748;SDS011;19119;52.474;13.710;2023-04-25T00:36:52;3.95;;;1.40;;
32748;SDS011;19119;52.474;13.710;2023-04-25T00:39:18;5.22;;;1.48;;
32748;SDS011;19119;52.474;13.710;2023-04-25T00:41:44;3.25;;;1.63;;
32748;SDS011;19119;52.474;13.710;2023-04-25T00:44:11;7.25;;;2.13;;
32748;SDS011;19119;52.474;13.710;2023-04-25T00:46:38;2.47;;;1.50;;
32748;SDS011;19119;52.474;13.710;2023-04-25T00:49:05;3.00;;;1.92;;
32748;SDS011;19119;52.474;13.710;2023-04-25T00:51:31;4.22;;;1.58;;
32748;SDS011;19119;52.474;13.710;2023-04-25T00:53:58;3.20;;;1.73;;
32748;SDS011;19119;52.474;13.710;2023-04-25T00:56:23;2.55;;;1.40;;
32748;SDS011;19119;52.474;13.710;2023-04-25T00:58:52;2.53;;;1.30;;
32748;SDS011;19119;52.474;13.710;2023-04-25T01:01:21;6.20;;;1.48;;
32748;SDS011;19119;52.474;13.710;2023-04-25T01:03:47;4.63;;;2.85;;
32748;SDS011;19119;52.474;13.710;2023-04-25T01:06:17;3.83;;;1.98;;
32748;SDS011;19119;52.474;13.710;2023-04-25T01:08:42;4.85;;;1.92;;
32748;SDS011;19119;52.474;13.710;2023-04-25T01:11:08;2.85;;;1.48;;
32748;SDS011;19119;52.474;13.710;2023-04-25T01:13:34;3.53;;;1.60;;
32748;SDS011;19119;52.474;13.710;2023-04-25T01:16:00;5.30;;;1.85;;
32748;SDS011;19119;52.474;13.710;2023-04-25T01:18:26;6.35;;;1.65;;
32748;SDS011;19119;52.474;13.710;2023-04-25T01:20:52;3.35;;;1.85;;
32748;SDS011;19119;52.474;13.710;2023-04-25T01:23:22;5.60;;;1.63;;
32748;SDS011;19119;52.474;13.710;2023-04-25T01:25:49;3.60;;;1.55;;
32748;SDS011;19119;52.474;13.710;2023-04-25T01:28:15;3.95;;;1.60;;
32748;SDS011;19119;52.474;13.710;2023-04-25T01:30:41;6.60;;;1.80;;
32748;SDS011;19119;52.474;13.710;2023-04-25T01:33:08;4.32;;;1.50;;
32748;SDS011;19119;52.474;13.710;2023-04-25T01:35:33;6.88;;;1.55;;
32748;SDS011;19119;52.474;13.710;2023-04-25T01:37:59;4.95;;;1.40;;
32748;SDS011;19119;52.474;13.710;2023-04-25T01:40:25;6.40;;;2.58;;
32748;SDS011;19119;52.474;13.710;2023-04-25T01:42:52;6.57;;;1.88;;
32748;SDS011;19119;52.474;13.710;2023-04-25T01:45:17;4.47;;;1.80;;
32748;SDS011;19119;52.474;13.710;2023-04-25T01:47:43;3.15;;;1.83;;
32748;SDS011;19119;52.474;13.710;2023-04-25T01:50:13;4.95;;;2.13;;
32748;SDS011;19119;52.474;13.710;2023-04-25T01:52:39;5.22;;;1.85;;
32748;SDS011;19119;52.474;13.710;2023-04-25T01:55:07;7.28;;;1.90;;
32748;SDS011;19119;52.474;13.710;2023-04-25T01:57:33;4.85;;;1.60;;
32748;SDS011;19119;52.474;13.710;2023-04-25T01:59:59;3.40;;;1.50;;
32748;SDS011;19119;52.474;13.710;2023-04-25T02:02:27;6.80;;;1.63;;
32748;SDS011;19119;52.474;13.710;2023-04-25T02:04:54;3.58;;;1.52;;
32748;SDS011;19119;52.474;13.710;2023-04-25T02:07:21;5.07;;;1.90;;
32748;SDS011;19119;52.474;13.710;2023-04-25T02:09:47;3.47;;;1.58;;
32748;SDS011;19119;52.474;13.710;2023-04-25T02:12:13;5.00;;;2.40;;
32748;SDS011;19119;52.474;13.710;2023-04-25T02:14:40;4.55;;;1.90;;
32748;SDS011;19119;52.474;13.710;2023-04-25T02:17:05;7.25;;;2.20;;
32748;SDS011;19119;52.474;13.710;2023-04-25T02:19:31;5.57;;;1.85;;
32748;SDS011;19119;52.474;13.710;2023-04-25T02:21:58;3.33;;;1.90;;
32748;SDS011;19119;52.474;13.710;2023-04-25T02:24:24;8.20;;;2.60;;
32748;SDS011;19119;52.474;13.710;2023-04-25T02:26:49;5.55;;;2.05;;
32748;SDS011;19119;52.474;13.710;2023-04-25T02:29:15;7.15;;;2.97;;
32748;SDS011;19119;52.474;13.710;2023-04-25T02:31:42;3.30;;;1.90;;
32748;SDS011;19119;52.474;13.710;2023-04-25T02:34:09;5.78;;;1.80;;
32748;SDS011;19119;52.474;13.710;2023-04-25T02:36:36;4.13;;;1.50;;
32748;SDS011;19119;52.474;13.710;2023-04-25T02:39:01;6.10;;;2.00;;
32748;SDS011;19119;52.474;13.710;2023-04-25T02:41:27;6.75;;;1.80;;
32748;SDS011;19119;52.474;13.710;2023-04-25T02:43:53;3.72;;;2.17;;
32748;SDS011;19119;52.474;13.710;2023-04-25T02:46:20;4.03;;;2.05;;
32748;SDS011;19119;52.474;13.710;2023-04-25T02:48:46;3.67;;;2.10;;
32748;SDS011;19119;52.474;13.710;2023-04-25T02:51:11;4.60;;;1.83;;
32748;SDS011;19119;52.474;13.710;2023-04-25T02:53:37;5.40;;;1.55;;
32748;SDS011;19119;52.474;13.710;2023-04-25T02:56:02;5.40;;;2.33;;
32748;SDS011;19119;52.474;13.710;2023-04-25T02:58:29;4.28;;;2.17;;
32748;SDS011;19119;52.474;13.710;2023-04-25T03:00:55;8.25;;;2.42;;
32748;SDS011;19119;52.474;13.710;2023-04-25T03:03:20;6.85;;;1.67;;
32748;SDS011;19119;52.474;13.710;2023-04-25T03:05:49;5.22;;;2.22;;
32748;SDS011;19119;52.474;13.710;2023-04-25T03:08:15;3.70;;;2.00;;
32748;SDS011;19119;52.474;13.710;2023-04-25T03:10:43;3.78;;;2.40;;
32748;SDS011;19119;52.474;13.710;2023-04-25T03:13:10;5.40;;;2.30;;
32748;SDS011;19119;52.474;13.710;2023-04-25T03:15:37;6.68;;;2.58;;
32748;SDS011;19119;52.474;13.710;2023-04-25T03:18:03;5.70;;;2.25;;
32748;SDS011;19119;52.474;13.710;2023-04-25T03:20:29;6.03;;;1.90;;
32748;SDS011;19119;52.474;13.710;2023-04-25T03:22:55;6.80;;;2.40;;
32748;SDS011;19119;52.474;13.710;2023-04-25T03:25:20;5.28;;;2.13;;
32748;SDS011;19119;52.474;13.710;2023-04-25T03:27:46;6.88;;;2.20;;
32748;SDS011;19119;52.474;13.710;2023-04-25T03:30:12;7.47;;;2.45;;
32748;SDS011;19119;52.474;13.710;2023-04-25T03:32:38;4.93;;;2.25;;
32748;SDS011;19119;52.474;13.710;2023-04-25T03:35:04;8.05;;;1.98;;
32748;SDS011;19119;52.474;13.710;2023-04-25T03:37:30;4.82;;;2.33;;
32748;SDS011;19119;52.474;13.710;2023-04-25T03:39:55;8.27;;;2.47;;
32748;SDS011;19119;52.474;13.710;2023-04-25T03:42:21;7.93;;;2.10;;
32748;SDS011;19119;52.474;13.710;2023-04-25T03:44:48;4.78;;;2.17;;
32748;SDS011;19119;52.474;13.710;2023-04-25T03:47:14;6.50;;;1.92;;
32748;SDS011;19119;52.474;13.710;2023-04-25T03:49:39;8.52;;;2.47;;
32748;SDS011;19119;52.474;13.710;2023-04-25T03:52:06;6.55;;;2.72;;
32748;SDS011;19119;52.474;13.710;2023-04-25T03:54:32;5.18;;;2.30;;
32748;SDS011;19119;52.474;13.710;2023-04-25T03:56:57;4.75;;;1.80;;
32748;SDS011;19119;52.474;13.710;2023-04-25T03:59:23;6.28;;;2.42;;
32748;SDS011;19119;52.474;13.710;2023-04-25T04:01:49;6.35;;;2.38;;
32748;SDS011;19119;52.474;13.710;2023-04-25T04:04:15;4.15;;;2.00;;
32748;SDS011;19119;52.474;13.710;2023-04-25T04:06:40;5.97;;;2.25;;
32748;SDS011;19119;52.474;13.710;2023-04-25T04:09:07;5.43;;;2.40;;
32748;SDS011;19119;52.474;13.710;2023-04-25T04:11:35;6.75;;;2.58;;
32748;SDS011;19119;52.474;13.710;2023-04-25T04:14:03;7.72;;;2.58;;
32748;SDS011;19119;52.474;13.710;2023-04-25T04:16:31;7.53;;;3.80;;
32748;SDS011;19119;52.474;13.710;2023-04-25T04:18:57;5.63;;;2.10;;
32748;SDS011;19119;52.474;13.710;2023-04-25T04:21:22;5.38;;;1.98;;
32748;SDS011;19119;52.474;13.710;2023-04-25T04:23:48;6.22;;;2.70;;
32748;SDS011;19119;52.474;13.710;2023-04-25T04:26:14;9.73;;;2.90;;
32748;SDS011;19119;52.474;13.710;2023-04-25T04:28:41;5.93;;;2.70;;
32748;SDS011;19119;52.474;13.710;2023-04-25T04:31:08;11.07;;;3.33;;
32748;SDS011;19119;52.474;13.710;2023-04-25T04:33:34;5.30;;;2.33;;
32748;SDS011;19119;52.474;13.710;2023-04-25T04:36:01;7.07;;;2.42;;
32748;SDS011;19119;52.474;13.710;2023-04-25T04:38:27;5.97;;;2.13;;
32748;SDS011;19119;52.474;13.710;2023-04-25T04:40:54;4.43;;;2.38;;
32748;SDS011;19119;52.474;13.710;2023-04-25T04:43:19;6.00;;;2.65;;
32748;SDS011;19119;52.474;13.710;2023-04-25T04:45:45;7.22;;;2.80;;
32748;SDS011;19119;52.474;13.710;2023-04-25T04:48:10;6.78;;;2.55;;
32748;SDS011;19119;52.474;13.710;2023-04-25T04:50:38;7.75;;;2.67;;
32748;SDS011;19119;52.474;13.710;2023-04-25T04:53:05;5.18;;;3.05;;
32748;SDS011;19119;52.474;13.710;2023-04-25T04:55:30;4.35;;;2.20;;
32748;SDS011;19119;52.474;13.710;2023-04-25T04:57:56;5.55;;;2.03;;
32748;SDS011;19119;52.474;13.710;2023-04-25T05:00:21;5.65;;;2.53;;
32748;SDS011;19119;52.474;13.710;2023-04-25T05:02:47;5.00;;;2.20;;
32748;SDS011;19119;52.474;13.710;2023-04-25T05:05:12;7.45;;;2.40;;
32748;SDS011;19119;52.474;13.710;2023-04-25T05:07:38;6.80;;;2.38;;
32748;SDS011;19119;52.474;13.710;2023-04-25T05:10:03;4.03;;;2.60;;
32748;SDS011;19119;52.474;13.710;2023-04-25T05:12:29;10.25;;;2.67;;
32748;SDS011;19119;52.474;13.710;2023-04-25T05:14:55;8.38;;;2.85;;
32748;SDS011;19119;52.474;13.710;2023-04-25T05:17:21;4.32;;;2.28;;
32748;SDS011;19119;52.474;13.710;2023-04-25T05:19:46;8.38;;;2.58;;
32748;SDS011;19119;52.474;13.710;2023-04-25T05:22:12;6.55;;;2.58;;
32748;SDS011;19119;52.474;13.710;2023-04-25T05:24:37;5.15;;;2.20;;
32748;SDS011;19119;52.474;13.710;2023-04-25T05:27:02;7.32;;;2.63;;
32748;SDS011;19119;52.474;13.710;2023-04-25T05:29:28;6.55;;;2.92;;
32748;SDS011;19119;52.474;13.710;2023-04-25T05:31:53;8.30;;;2.58;;
32748;SDS011;19119;52.474;13.710;2023-04-25T05:34:19;6.90;;;2.20;;
32748;SDS011;19119;52.474;13.710;2023-04-25T05:36:44;8.50;;;2.70;;
32748;SDS011;19119;52.474;13.710;2023-04-25T05:39:13;6.22;;;2.78;;
32748;SDS011;19119;52.474;13.710;2023-04-25T05:41:39;7.03;;;2.30;;
32748;SDS011;19119;52.474;13.710;2023-04-25T05:44:05;8.02;;;2.70;;
32748;SDS011;19119;52.474;13.710;2023-04-25T05:46:30;10.20;;;2.63;;
32748;SDS011;19119;52.474;13.710;2023-04-25T05:48:55;7.22;;;2.95;;
32748;SDS011;19119;52.474;13.710;2023-04-25T05:51:21;4.72;;;2.47;;
32748;SDS011;19119;52.474;13.710;2023-04-25T05:53:46;11.65;;;3.10;;
32748;SDS011;19119;52.474;13.710;2023-04-25T05:56:12;5.18;;;2.70;;
32748;SDS011;19119;52.474;13.710;2023-04-25T05:58:38;5.20;;;2.80;;
32748;SDS011;19119;52.474;13.710;2023-04-25T06:01:03;8.50;;;3.00;;
32748;SDS011;19119;52.474;13.710;2023-04-25T06:03:29;7.40;;;2.47;;
32748;SDS011;19119;52.474;13.710;2023-04-25T06:05:55;5.15;;;3.05;;
32748;SDS011;19119;52.474;13.710;2023-04-25T06:08:21;7.10;;;2.63;;
32748;SDS011;19119;52.474;13.710;2023-04-25T06:10:46;10.98;;;3.90;;
32748;SDS011;19119;52.474;13.710;2023-04-25T06:13:12;10.00;;;2.95;;
32748;SDS011;19119;52.474;13.710;2023-04-25T06:15:37;6.63;;;3.22;;
32748;SDS011;19119;52.474;13.710;2023-04-25T06:18:03;7.03;;;2.78;;
32748;SDS011;19119;52.474;13.710;2023-04-25T06:20:28;4.40;;;2.83;;
32748;SDS011;19119;52.474;13.710;2023-04-25T06:22:54;7.28;;;2.72;;
32748;SDS011;19119;52.474;13.710;2023-04-25T06:25:19;7.20;;;2.80;;
32748;SDS011;19119;52.474;13.710;2023-04-25T06:27:45;7.65;;;2.47;;
32748;SDS011;19119;52.474;13.710;2023-04-25T06:30:10;7.18;;;3.42;;
32748;SDS011;19119;52.474;13.710;2023-04-25T06:32:37;5.10;;;2.30;;
32748;SDS011;19119;52.474;13.710;2023-04-25T06:35:03;6.43;;;2.50;;
32748;SDS011;19119;52.474;13.710;2023-04-25T06:37:28;6.55;;;2.65;;
32748;SDS011;19119;52.474;13.710;2023-04-25T06:39:54;6.55;;;2.58;;
32748;SDS011;19119;52.474;13.710;2023-04-25T06:42:19;8.68;;;3.03;;
32748;SDS011;19119;52.474;13.710;2023-04-25T06:44:45;6.10;;;3.47;;
32748;SDS011;19119;52.474;13.710;2023-04-25T06:47:10;7.63;;;2.63;;
32748;SDS011;19119;52.474;13.710;2023-04-25T06:49:36;7.65;;;2.75;;
32748;SDS011;19119;52.474;13.710;2023-04-25T06:52:02;5.68;;;2.70;;
32748;SDS011;19119;52.474;13.710;2023-04-25T06:54:27;13.75;;;2.92;;
32748;SDS011;19119;52.474;13.710;2023-04-25T06:56:54;5.93;;;2.55;;
32748;SDS011;19119;52.474;13.710;2023-04-25T06:59:20;8.98;;;2.97;;
32748;SDS011;19119;52.474;13.710;2023-04-25T07:01:46;4.32;;;2.88;;
32748;SDS011;19119;52.474;13.710;2023-04-25T07:04:11;7.53;;;3.38;;
32748;SDS011;19119;52.474;13.710;2023-04-25T07:06:37;6.45;;;3.35;;
32748;SDS011;19119;52.474;13.710;2023-04-25T07:09:12;4.88;;;2.17;;
32748;SDS011;19119;52.474;13.710;2023-04-25T07:11:37;8.07;;;3.20;;
32748;SDS011;19119;52.474;13.710;2023-04-25T07:14:03;7.00;;;3.38;;
32748;SDS011;19119;52.474;13.710;2023-04-25T07:16:29;6.32;;;2.95;;
32748;SDS011;19119;52.474;13.710;2023-04-25T07:18:54;6.65;;;2.47;;
32748;SDS011;19119;52.474;13.710;2023-04-25T07:21:20;6.40;;;3.33;;
32748;SDS011;19119;52.474;13.710;2023-04-25T07:23:45;7.75;;;3.00;;
32748;SDS011;19119;52.474;13.710;2023-04-25T07:26:11;7.45;;;3.40;;
32748;SDS011;19119;52.474;13.710;2023-04-25T07:28:36;6.28;;;3.45;;
32748;SDS011;19119;52.474;13.710;2023-04-25T07:31:02;9.23;;;3.72;;
32748;SDS011;19119;52.474;13.710;2023-04-25T07:33:28;9.50;;;3.10;;
32748;SDS011;19119;52.474;13.710;2023-04-25T07:35:54;5.28;;;2.38;;
32748;SDS011;19119;52.474;13.710;2023-04-25T07:38:21;13.32;;;2.90;;
32748;SDS011;19119;52.474;13.710;2023-04-25T07:40:47;5.60;;;2.58;;
32748;SDS011;19119;52.474;13.710;2023-04-25T07:43:13;5.60;;;2.15;;
32748;SDS011;19119;52.474;13.710;2023-04-25T07:45:41;6.60;;;2.40;;
32748;SDS011;19119;52.474;13.710;2023-04-25T07:48:10;9.65;;;3.10;;
32748;SDS011;19119;52.474;13.710;2023-04-25T07:50:36;6.60;;;2.50;;
32748;SDS011;19119;52.474;13.710;2023-04-25T07:53:02;5.72;;;2.55;;
32748;SDS011;19119;52.474;13.710;2023-04-25T07:55:28;4.38;;;2.60;;
32748;SDS011;19119;52.474;13.710;2023-04-25T07:57:54;5.25;;;2.70;;
32748;SDS011;19119;52.474;13.710;2023-04-25T08:00:19;5.10;;;3.03;;
32748;SDS011;19119;52.474;13.710;2023-04-25T08:02:45;5.22;;;3.00;;
32748;SDS011;19119;52.474;13.710;2023-04-25T08:05:11;9.57;;;3.70;;
32748;SDS011;19119;52.474;13.710;2023-04-25T08:07:40;6.88;;;3.17;;
32748;SDS011;19119;52.474;13.710;2023-04-25T08:10:06;10.82;;;3.85;;
32748;SDS011;19119;52.474;13.710;2023-04-25T08:12:32;9.13;;;3.03;;
32748;SDS011;19119;52.474;13.710;2023-04-25T08:14:57;6.60;;;3.10;;
32748;SDS011;19119;52.474;13.710;2023-04-25T08:17:23;4.32;;;2.45;;
32748;SDS011;19119;52.474;13.710;2023-04-25T08:19:48;6.45;;;2.75;;
32748;SDS011;19119;52.474;13.710;2023-04-25T08:22:14;7.05;;;2.58;;
32748;SDS011;19119;52.474;13.710;2023-04-25T08:24:40;5.75;;;2.85;;
32748;SDS011;19119;52.474;13.710;2023-04-25T08:27:06;5.07;;;2.15;;
32748;SDS011;19119;52.474;13.710;2023-04-25T08:29:32;6.03;;;2.72;;
32748;SDS011;19119;52.474;13.710;2023-04-25T08:31:58;10.48;;;3.60;;
32748;SDS011;19119;52.474;13.710;2023-04-25T08:34:24;7.15;;;2.85;;
32748;SDS011;19119;52.474;13.710;2023-04-25T08:36:50;6.97;;;2.40;;
32748;SDS011;19119;52.474;13.710;2023-04-25T08:39:15;8.27;;;2.65;;
32748;SDS011;19119;52.474;13.710;2023-04-25T08:41:41;9.57;;;3.33;;
32748;SDS011;19119;52.474;13.710;2023-04-25T08:44:08;10.45;;;4.10;;
32748;SDS011;19119;52.474;13.710;2023-04-25T08:46:35;11.98;;;3.15;;
32748;SDS011;19119;52.474;13.710;2023-04-25T08:49:05;11.82;;;3.25;;
32748;SDS011;19119;52.474;13.710;2023-04-25T08:51:32;9.32;;;2.75;;
32748;SDS011;19119;52.474;13.710;2023-04-25T08:54:04;10.43;;;2.88;;
32748;SDS011;19119;52.474;13.710;2023-04-25T08:56:35;10.32;;;2.67;;
32748;SDS011;19119;52.474;13.710;2023-04-25T08:59:01;7.82;;;2.30;;
32748;SDS011;19119;52.474;13.710;2023-04-25T09:01:27;12.07;;;2.90;;
32748;SDS011;19119;52.474;13.710;2023-04-25T09:03:53;8.48;;;2.92;;
32748;SDS011;19119;52.474;13.710;2023-04-25T09:06:19;14.38;;;2.63;;
32748;SDS011;19119;52.474;13.710;2023-04-25T09:08:45;14.18;;;3.65;;
32748;SDS011;19119;52.474;13.710;2023-04-25T09:11:10;9.15;;;2.80;;
32748;SDS011;19119;52.474;13.710;2023-04-25T09:13:37;15.82;;;3.28;;
32748;SDS011;19119;52.474;13.710;2023-04-25T09:16:03;9.32;;;2.65;;
32748;SDS011;19119;52.474;13.710;2023-04-25T09:18:29;11.90;;;2.85;;
32748;SDS011;19119;52.474;13.710;2023-04-25T09:20:58;6.88;;;2.70;;
32748;SDS011;19119;52.474;13.710;2023-04-25T09:23:40;9.45;;;2.50;;
32748;SDS011;19119;52.474;13.710;2023-04-25T09:26:10;10.82;;;2.60;;
32748;SDS011;19119;52.474;13.710;2023-04-25T09:28:42;9.98;;;2.33;;
32748;SDS011;19119;52.474;13.710;2023-04-25T09:31:11;7.45;;;2.35;;
32748;SDS011;19119;52.474;13.710;2023-04-25T09:33:38;10.13;;;2.80;;
32748;SDS011;19119;52.474;13.710;2023-04-25T09:36:06;12.18;;;2.28;;
32748;SDS011;19119;52.474;13.710;2023-04-25T09:38:41;9.30;;;2.40;;
32748;SDS011;19119;52.474;13.710;2023-04-25T09:41:08;8.45;;;3.58;;
32748;SDS011;19119;52.474;13.710;2023-04-25T09:43:35;11.73;;;2.60;;
32748;SDS011;19119;52.474;13.710;2023-04-25T09:46:01;12.05;;;3.15;;
32748;SDS011;19119;52.474;13.710;2023-04-25T09:48:27;8.82;;;2.58;;
32748;SDS011;19119;52.474;13.710;2023-04-25T09:53:30;8.50;;;1.98;;
32748;SDS011;19119;52.474;13.710;2023-04-25T09:55:56;6.85;;;2.45;;
32748;SDS011;19119;52.474;13.710;2023-04-25T09:58:24;10.25;;;1.60;;
32748;SDS011;19119;52.474;13.710;2023-04-25T10:00:51;4.95;;;1.65;;
32748;SDS011;19119;52.474;13.710;2023-04-25T10:03:17;9.43;;;2.42;;
32748;SDS011;19119;52.474;13.710;2023-04-25T10:05:44;6.40;;;1.80;;
32748;SDS011;19119;52.474;13.710;2023-04-25T10:08:11;9.63;;;2.60;;
32748;SDS011;19119;52.474;13.710;2023-04-25T10:10:37;13.50;;;2.58;;
32748;SDS011;19119;52.474;13.710;2023-04-25T10:13:05;7.45;;;2.17;;
32748;SDS011;19119;52.474;13.710;2023-04-25T10:15:32;5.47;;;1.67;;
32748;SDS011;19119;52.474;13.710;2023-04-25T10:18:01;5.85;;;2.35;;
32748;SDS011;19119;52.474;13.710;2023-04-25T10:20:27;9.57;;;2.42;;
32748;SDS011;19119;52.474;13.710;2023-04-25T10:22:54;8.38;;;1.95;;
32748;SDS011;19119;52.474;13.710;2023-04-25T10:25:23;7.90;;;1.70;;
32748;SDS011;19119;52.474;13.710;2023-04-25T10:27:52;8.00;;;1.98;;
32748;SDS011;19119;52.474;13.710;2023-04-25T10:30:18;5.45;;;1.65;;
32748;SDS011;19119;52.474;13.710;2023-04-25T10:32:44;9.23;;;2.10;;
32748;SDS011;19119;52.474;13.710;2023-04-25T10:37:59;3.65;;;1.35;;
32748;SDS011;19119;52.474;13.710;2023-04-25T10:40:29;13.35;;;2.03;;
32748;SDS011;19119;52.474;13.710;2023-04-25T10:42:56;11.60;;;2.50;;
32748;SDS011;19119;52.474;13.710;2023-04-25T10:46:19;6.40;;;2.05;;
32748;SDS011;19119;52.474;13.710;2023-04-25T10:48:49;7.75;;;2.15;;
32748;SDS011;19119;52.474;13.710;2023-04-25T10:51:19;3.38;;;1.27;;
32748;SDS011;19119;52.474;13.710;2023-04-25T10:53:48;6.35;;;2.38;;
32748;SDS011;19119;52.474;13.710;2023-04-25T10:56:22;7.00;;;1.80;;
32748;SDS011;19119;52.474;13.710;2023-04-25T10:58:50;8.13;;;1.83;;
32748;SDS011;19119;52.474;13.710;2023-04-25T11:01:20;7.82;;;1.60;;
32748;SDS011;19119;52.474;13.710;2023-04-25T11:03:49;5.00;;;1.65;;
32748;SDS011;19119;52.474;13.710;2023-04-25T11:06:35;9.25;;;2.03;;
32748;SDS011;19119;52.474;13.710;2023-04-25T11:09:16;3.85;;;1.77;;
32748;SDS011;19119;52.474;13.710;2023-04-25T11:11:41;10.05;;;1.85;;
32748;SDS011;19119;52.474;13.710;2023-04-25T11:14:07;9.68;;;2.00;;
32748;SDS011;19119;52.474;13.710;2023-04-25T11:16:32;8.20;;;1.85;;
32748;SDS011;19119;52.474;13.710;2023-04-25T11:18:58;8.32;;;1.50;;
32748;SDS011;19119;52.474;13.710;2023-04-25T11:21:26;6.65;;;2.75;;
32748;SDS011;19119;52.474;13.710;2023-04-25T11:26:22;11.65;;;2.03;;
32748;SDS011;19119;52.474;13.710;2023-04-25T11:28:49;4.72;;;1.63;;
32748;SDS011;19119;52.474;13.710;2023-04-25T11:31:14;6.85;;;1.55;;
32748;SDS011;19119;52.474;13.710;2023-04-25T11:33:40;13.15;;;1.92;;
32748;SDS011;19119;52.474;13.710;2023-04-25T11:36:05;4.95;;;1.55;;
32748;SDS011;19119;52.474;13.710;2023-04-25T11:38:31;7.32;;;2.28;;
32748;SDS011;19119;52.474;13.710;2023-04-25T11:40:57;6.97;;;1.90;;
32748;SDS011;19119;52.474;13.710;2023-04-25T11:43:23;6.10;;;1.52;;
32748;SDS011;19119;52.474;13.710;2023-04-25T11:45:49;4.40;;;1.20;;
32748;SDS011;19119;52.474;13.710;2023-04-25T11:48:18;6.07;;;1.95;;
32748;SDS011;19119;52.474;13.710;2023-04-25T11:50:45;6.45;;;1.52;;
32748;SDS011;19119;52.474;13.710;2023-04-25T11:53:10;4.45;;;2.05;;
32748;SDS011;19119;52.474;13.710;2023-04-25T11:55:36;8.63;;;2.08;;
32748;SDS011;19119;52.474;13.710;2023-04-25T11:58:02;14.52;;;2.00;;
32748;SDS011;19119;52.474;13.710;2023-04-25T12:00:30;4.65;;;1.48;;
32748;SDS011;19119;52.474;13.710;2023-04-25T12:02:56;8.38;;;1.73;;
32748;SDS011;19119;52.474;13.710;2023-04-25T12:05:23;9.52;;;2.00;;
32748;SDS011;19119;52.474;13.710;2023-04-25T12:07:51;10.55;;;1.45;;
32748;SDS011;19119;52.474;13.710;2023-04-25T12:10:18;11.25;;;1.60;;
32748;SDS011;19119;52.474;13.710;2023-04-25T12:12:44;6.35;;;1.77;;
32748;SDS011;19119;52.474;13.710;2023-04-25T12:15:18;8.50;;;1.90;;
32748;SDS011;19119;52.474;13.710;2023-04-25T12:17:49;8.13;;;1.10;;
32748;SDS011;19119;52.474;13.710;2023-04-25T12:20:17;9.52;;;1.52;;
32748;SDS011;19119;52.474;13.710;2023-04-25T12:22:45;3.80;;;1.30;;
32748;SDS011;19119;52.474;13.710;2023-04-25T12:25:12;5.93;;;1.45;;
32748;SDS011;19119;52.474;13.710;2023-04-25T12:27:38;6.03;;;1.60;;
32748;SDS011;19119;52.474;13.710;2023-04-25T12:30:07;3.28;;;1.45;;
32748;SDS011;19119;52.474;13.710;2023-04-25T12:32:33;7.57;;;1.70;;
32748;SDS011;19119;52.474;13.710;2023-04-25T12:34:58;7.95;;;1.23;;
32748;SDS011;19119;52.474;13.710;2023-04-25T12:37:24;6.30;;;1.45;;
32748;SDS011;19119;52.474;13.710;2023-04-25T12:39:49;10.32;;;1.48;;
32748;SDS011;19119;52.474;13.710;2023-04-25T12:42:15;5.82;;;1.50;;
32748;SDS011;19119;52.474;13.710;2023-04-25T12:44:41;11.75;;;2.10;;
32748;SDS011;19119;52.474;13.710;2023-04-25T12:47:09;7.00;;;1.48;;
32748;SDS011;19119;52.474;13.710;2023-04-25T12:49:34;7.22;;;1.35;;
32748;SDS011;19119;52.474;13.710;2023-04-25T12:52:00;3.95;;;1.20;;
32748;SDS011;19119;52.474;13.710;2023-04-25T12:54:25;4.22;;;1.10;;
32748;SDS011;19119;52.474;13.710;2023-04-25T12:56:51;4.35;;;1.30;;
32748;SDS011;19119;52.474;13.710;2023-04-25T12:59:17;5.75;;;1.55;;
32748;SDS011;19119;52.474;13.710;2023-04-25T13:01:43;6.75;;;2.10;;
32748;SDS011;19119;52.474;13.710;2023-04-25T13:04:10;4.07;;;1.52;;
32748;SDS011;19119;52.474;13.710;2023-04-25T13:06:35;4.32;;;1.40;;
32748;SDS011;19119;52.474;13.710;2023-04-25T13:09:01;5.20;;;1.63;;
32748;SDS011;19119;52.474;13.710;2023-04-25T13:11:26;9.93;;;1.90;;
32748;SDS011;19119;52.474;13.710;2023-04-25T13:13:52;5.32;;;1.10;;
32748;SDS011;19119;52.474;13.710;2023-04-25T13:16:17;3.67;;;1.17;;
32748;SDS011;19119;52.474;13.710;2023-04-25T13:18:46;2.85;;;0.98;;
32748;SDS011;19119;52.474;13.710;2023-04-25T13:21:14;6.43;;;1.63;;
32748;SDS011;19119;52.474;13.710;2023-04-25T13:23:40;6.53;;;1.80;;
32748;SDS011;19119;52.474;13.710;2023-04-25T13:26:07;7.45;;;1.48;;
32748;SDS011;19119;52.474;13.710;2023-04-25T13:28:35;6.43;;;1.80;;
32748;SDS011;19119;52.474;13.710;2023-04-25T13:31:02;5.38;;;1.05;;
32748;SDS011;19119;52.474;13.710;2023-04-25T13:33:27;3.85;;;1.30;;
32748;SDS011;19119;52.474;13.710;2023-04-25T13:35:54;3.30;;;0.93;;
32748;SDS011;19119;52.474;13.710;2023-04-25T13:38:27;4.45;;;1.35;;
32748;SDS011;19119;52.474;13.710;2023-04-25T13:40:56;6.45;;;1.17;;
32748;SDS011;19119;52.474;13.710;2023-04-25T13:43:21;3.55;;;1.38;;
32748;SDS011;19119;52.474;13.710;2023-04-25T13:45:48;6.07;;;1.05;;
32748;SDS011;19119;52.474;13.710;2023-04-25T13:48:15;3.85;;;1.00;;
32748;SDS011;19119;52.474;13.710;2023-04-25T13:50:46;4.00;;;1.10;;
32748;SDS011;19119;52.474;13.710;2023-04-25T13:53:12;6.13;;;1.23;;
32748;SDS011;19119;52.474;13.710;2023-04-25T13:55:38;3.55;;;1.65;;
32748;SDS011;19119;52.474;13.710;2023-04-25T13:58:05;2.08;;;1.05;;
32748;SDS011;19119;52.474;13.710;2023-04-25T14:00:33;5.35;;;1.48;;
32748;SDS011;19119;52.474;13.710;2023-04-25T14:03:00;6.25;;;1.40;;
32748;SDS011;19119;52.474;13.710;2023-04-25T14:05:31;10.90;;;2.25;;
32748;SDS011;19119;52.474;13.710;2023-04-25T14:07:56;3.95;;;1.17;;
32748;SDS011;19119;52.474;13.710;2023-04-25T14:10:22;6.78;;;1.23;;
32748;SDS011;19119;52.474;13.710;2023-04-25T14:12:47;6.30;;;1.67;;
32748;SDS011;19119;52.474;13.710;2023-04-25T14:15:15;12.98;;;1.35;;
32748;SDS011;19119;52.474;13.710;2023-04-25T14:17:42;8.43;;;1.40;;
32748;SDS011;19119;52.474;13.710;2023-04-25T14:20:08;8.23;;;1.60;;
32748;SDS011;19119;52.474;13.710;2023-04-25T14:22:35;7.97;;;1.98;;
32748;SDS011;19119;52.474;13.710;2023-04-25T14:25:01;9.07;;;1.67;;
32748;SDS011;19119;52.474;13.710;2023-04-25T14:27:28;4.18;;;1.20;;
32748;SDS011;19119;52.474;13.710;2023-04-25T14:29:54;3.55;;;1.45;;
32748;SDS011;19119;52.474;13.710;2023-04-25T14:32:19;4.28;;;1.40;;
32748;SDS011;19119;52.474;13.710;2023-04-25T14:34:46;4.07;;;1.00;;
32748;SDS011;19119;52.474;13.710;2023-04-25T14:37:16;4.63;;;1.70;;